Latest Weather Observations for Proserpine

IDQ60801

Issued at 2:05 pm EST Thursday 21 August 2014 (issued every 30 minutes, with the page automatically refreshed every 10 minutes)

About weather observations | Map of weather stations | Latest weather observations for QLD | Other Formats
Station Details ID: 033247 Name: PROSERPINE AIRPORT Lat: -20.49 Lon: 148.56 Height: 19.7 m
Data from the previous 72 hours. | See also: Recent months at Proserpine
Date/Time
EST
Temp
°C
App
Temp
°C
Dew
Point
Rel
Hum
%
Delta-T
°C
Wind Press
QNH
hPa
Press
MSL
hPa
Rain
since 9 am
mm
Dir
 
Spd
km/h
Gust
km/h
Spd
kts
Gust
kts
21/02:00pm 23.4 21.0 13.8 54 5.6 ESE 19 30 10 16 1016.9 - 0.0
21/01:30pm 22.9 19.4 12.2 51 6.1 ESE 22 32 12 17 1017.2 - 0.0
21/01:00pm 22.6 19.2 12.5 53 5.7 ESE 22 30 12 16 1017.7 - 0.0
21/12:30pm 23.2 20.6 13.1 53 5.8 SE 19 30 10 16 1018.0 - 0.0
21/12:00pm 22.6 19.7 12.3 52 5.8 ESE 19 28 10 15 1018.6 1018.6 0.0
21/11:30am 22.7 19.7 12.0 50 6.0 E 19 30 10 16 1019.0 - 0.0
21/11:00am 22.5 19.5 11.9 51 6.0 ESE 19 35 10 19 1019.4 - 0.0
21/10:30am 22.1 19.4 11.8 52 5.8 ESE 17 26 9 14 1019.7 - 0.0
21/10:00am 21.9 19.5 12.5 55 5.3 ESE 17 24 9 13 1019.9 - 0.0
21/09:30am 20.6 18.7 11.8 57 4.9 ESE 13 19 7 10 1020.0 - 0.0
21/09:00am 19.3 18.6 13.2 68 3.5 SSE 9 15 5 8 1019.8 1019.8 0.0
21/08:30am 17.3 17.0 12.8 75 2.5 S 6 9 3 5 1019.8 - 0.0
21/08:00am 15.3 15.0 12.6 84 1.5 SSW 6 7 3 4 1019.5 - 0.0
21/07:30am 12.2 12.6 11.4 95 0.4 CALM 0 0 0 0 1019.2 - 0.0
21/07:00am 9.6 9.4 9.1 97 0.2 CALM 0 0 0 0 1018.9 - 0.0
21/06:30am 8.3 7.8 7.9 97 0.2 CALM 0 0 0 0 1018.5 - 0.0
21/06:00am 8.3 7.8 7.7 96 0.3 WSW 0 0 0 0 1018.3 1018.3 0.0
21/05:30am 8.4 7.9 7.8 96 0.3 CALM 0 0 0 0 1017.9 - 0.0
21/05:00am 8.2 6.8 7.1 93 0.5 W 4 7 2 4 1017.5 - 0.0
21/04:30am 9.7 9.5 9.2 97 0.2 CALM 0 0 0 0 1017.2 - 0.0
21/04:00am 9.5 9.3 9.0 97 0.2 CALM 0 0 0 0 1017.3 - 0.0
21/03:30am 9.0 8.2 8.2 95 0.4 W 2 6 1 3 1017.7 - 0.0
21/03:00am 9.5 9.2 8.6 94 0.4 CALM 0 0 0 0 1017.8 1017.8 0.0
21/02:30am 10.8 10.4 9.6 92 0.6 SSW 2 6 1 3 1017.9 - 0.0
21/02:00am 10.9 9.5 9.7 92 0.6 S 7 9 4 5 1018.1 - 0.0
21/01:30am 11.1 9.4 9.9 92 0.6 S 9 13 5 7 1018.4 - 0.0
21/01:00am 11.4 9.1 10.3 93 0.6 SSW 13 15 7 8 1018.7 - 0.0
21/12:30am 11.2 9.5 9.9 92 0.7 SSW 9 11 5 6 1019.1 - 0.0
21/12:00am 11.4 9.5 10.5 94 0.5 SSW 11 13 6 7 1019.3 1019.3 0.0
 
Date/Time
EST
Temp
°C
App
Temp
°C
Dew
Point
Rel
Hum
%
Delta-T
°C
Wind Press
QNH
hPa
Press
MSL
hPa
Rain
since 9 am
mm
Dir
 
Spd
km/h
Gust
km/h
Spd
kts
Gust
kts
20/11:30pm 11.4 9.8 10.1 92 0.7 SSW 9 11 5 6 1019.3 - 0.0
20/11:00pm 11.8 10.7 10.5 92 0.7 SW 7 9 4 5 1019.7 - 0.0
20/10:30pm 11.0 9.6 9.6 91 0.7 SW 7 9 4 5 1019.7 - 0.0
20/10:00pm 12.1 11.0 10.7 91 0.7 SW 7 9 4 5 1019.7 - 0.0
20/09:30pm 13.1 12.2 11.3 89 1.0 SSW 7 9 4 5 1019.9 - 0.0
20/09:00pm 12.6 11.8 11.0 90 0.8 SSW 6 7 3 4 1020.0 1020.0 0.0
20/08:30pm 12.8 11.8 11.0 89 0.9 SW 7 9 4 5 1019.8 - 0.0
20/08:00pm 13.3 13.6 10.8 85 1.3 CALM 0 0 0 0 1019.6 - 0.0
20/07:30pm 14.1 14.5 11.3 83 1.5 CALM 0 0 0 0 1019.4 - 0.0
20/07:00pm 16.3 15.0 11.2 72 2.7 SE 9 11 5 6 1018.7 - 0.0
20/06:30pm 16.9 15.1 11.0 68 3.2 ESE 11 13 6 7 1018.3 - 0.0
20/06:00pm 18.2 16.1 9.8 58 4.4 ESE 11 17 6 9 1017.9 1017.9 0.0
20/05:30pm 19.8 16.6 8.5 48 5.9 ESE 15 22 8 12 1017.6 - 0.0
20/05:00pm 20.8 16.3 6.0 38 7.4 ESE 19 26 10 14 1017.1 - 0.0
20/04:30pm 21.1 17.5 10.0 49 6.0 E 19 28 10 15 1016.7 - 0.0
20/04:00pm 21.6 17.6 9.2 45 6.6 E 20 30 11 16 1016.5 - 0.0
20/03:30pm 22.8 18.5 7.8 38 7.9 E 20 32 11 17 1016.4 - 0.0
20/03:00pm 23.0 18.6 7.5 37 8.1 E 20 28 11 15 1016.4 1016.3 0.0
20/02:30pm 23.8 19.7 7.8 36 8.4 E 19 28 10 15 1016.5 - 0.0
20/02:00pm 23.4 19.0 7.5 36 8.3 E 20 30 11 16 1016.7 - 0.0
20/01:30pm 23.5 18.8 5.9 32 8.9 E 20 28 11 15 1016.8 - 0.0
20/01:00pm 23.2 18.6 6.5 34 8.6 ESE 20 30 11 16 1017.2 - 0.0
20/12:30pm 23.0 18.4 5.4 32 8.8 E 19 28 10 15 1017.8 - 0.0
20/12:00pm 22.7 18.5 8.4 40 7.6 ESE 20 30 11 16 1018.2 1018.2 0.0
20/11:30am 22.8 18.2 6.6 35 8.3 ESE 20 26 11 14 1018.7 - 0.0
20/11:00am 22.2 17.9 7.2 38 7.7 ESE 19 26 10 14 1019.2 - 0.0
20/10:30am 22.7 18.7 8.4 40 7.6 ESE 19 28 10 15 1019.4 - 0.0
20/10:00am 21.1 17.4 8.0 43 6.8 ESE 17 24 9 13 1019.7 - 0.0
20/09:30am 19.9 17.4 11.1 57 4.8 ESE 15 20 8 11 1020.0 - 0.0
20/09:00am 17.9 16.8 12.1 69 3.2 ESE 9 11 5 6 1020.1 1020.0 0.0
20/08:30am 15.0 14.0 11.0 77 2.1 S 7 9 4 5 1019.8 - 0.0
20/08:00am 12.2 12.1 9.6 84 1.3 CALM 0 7 0 4 1019.5 - 0.0
20/07:30am 9.9 8.9 9.0 94 0.4 SSW 4 6 2 3 1019.0 - 0.0
20/07:00am 7.4 6.6 6.7 95 0.3 CALM 0 0 0 0 1018.7 - 0.0
20/06:30am 6.6 5.7 6.2 97 0.2 CALM 0 0 0 0 1018.4 - 0.0
20/06:00am 6.7 5.5 6.3 97 0.2 SW 2 7 1 4 1018.3 1018.3 0.0
20/05:30am 6.6 5.7 6.2 97 0.2 CALM 0 0 0 0 1018.1 - 0.0
20/05:00am 6.2 4.1 5.6 96 0.3 W 6 6 3 3 1017.8 - 0.0
20/04:30am 6.6 5.7 6.0 96 0.3 CALM 0 0 0 0 1017.7 - 0.0
20/04:00am 7.4 6.7 7.0 97 0.2 CALM 0 0 0 0 1017.7 - 0.0
20/03:30am 7.3 6.5 6.7 96 0.3 CALM 0 4 0 2 1017.8 - 0.0
20/03:00am 7.4 6.3 6.8 96 0.3 WSW 2 7 1 4 1017.5 1017.5 0.0
20/02:30am 7.8 5.8 7.2 96 0.3 WSW 7 9 4 5 1017.4 - 0.0
20/02:00am 7.9 5.9 7.3 96 0.3 S 7 9 4 5 1017.8 - 0.0
20/01:30am 8.4 6.6 8.0 97 0.2 SSW 7 11 4 6 1018.0 - 0.0
20/01:00am 7.8 7.1 6.9 94 0.4 CALM 0 0 0 0 1018.2 - 0.0
20/12:30am 8.7 8.2 7.9 95 0.4 CALM 0 0 0 0 1018.4 - 0.0
20/12:00am 8.9 8.4 8.0 94 0.4 CALM 0 0 0 0 1018.6 1018.6 0.0
 
Date/Time
EST
Temp
°C
App
Temp
°C
Dew
Point
Rel
Hum
%
Delta-T
°C
Wind Press
QNH
hPa
Press
MSL
hPa
Rain
since 9 am
mm
Dir
 
Spd
km/h
Gust
km/h
Spd
kts
Gust
kts
19/11:30pm 9.1 8.6 8.0 93 0.5 CALM 0 0 0 0 1018.4 - 0.0
19/11:00pm 9.6 8.9 8.7 94 0.4 WNW 2 7 1 4 1018.5 - 0.0
19/10:30pm 10.2 10.0 9.0 92 0.6 CALM 0 0 0 0 1018.3 - 0.0
19/10:00pm 10.6 10.4 9.0 90 0.8 CALM 0 0 0 0 1018.2 - 0.0
19/09:30pm 10.6 10.5 9.4 92 0.6 CALM 0 0 0 0 1018.0 - 0.0
19/09:00pm 11.2 11.1 9.3 88 0.9 CALM 0 0 0 0 1018.1 1018.1 0.0
19/08:30pm 12.5 12.6 10.0 85 1.3 CALM 0 0 0 0 1017.9 - 0.0
19/08:00pm 12.8 12.9 10.2 84 1.3 CALM 0 0 0 0 1017.7 - 0.0
19/07:30pm 13.3 13.2 9.4 77 2.0 CALM 0 0 0 0 1017.2 - 0.0
19/07:00pm 15.2 13.6 8.7 65 3.3 SE 7 9 4 5 1016.7 - 0.0
19/06:30pm 16.3 16.0 8.8 61 3.8 CALM 0 0 0 0 1016.2 - 0.0
19/06:00pm 19.0 17.1 7.4 47 5.9 NE 7 9 4 5 1015.8 1015.8 0.0
19/05:30pm 21.0 18.6 6.9 40 7.2 ESE 9 11 5 6 1015.5 - 0.0
19/05:00pm 22.5 19.3 6.7 36 8.1 E 13 19 7 10 1015.2 - 0.0
19/04:30pm 22.9 18.5 7.4 37 8.1 ESE 20 26 11 14 1014.8 - 0.0
19/04:00pm 23.4 18.5 6.7 34 8.6 ESE 22 33 12 18 1014.4 - 0.0
19/03:30pm 24.6 20.3 5.4 29 9.7 ESE 17 24 9 13 1014.1 - 0.0
19/03:00pm 25.3 21.8 5.5 28 10.1 E 13 22 7 12 1014.1 1014.1 0.0
19/02:30pm 24.5 20.3 5.8 30 9.5 E 17 28 9 15 1014.6 - 0.0
19/02:00pm 24.5 20.5 4.8 28 9.9 NE 15 20 8 11 1015.0 - 0.0
19/01:30pm 24.3 20.8 5.6 30 9.5 E 13 24 7 13 1015.5 - 0.0
19/01:00pm 24.6 21.4 6.8 32 9.3 NE 13 19 7 10 1016.0 - 0.0
19/12:30pm 24.0 20.4 6.7 33 8.9 ENE 15 24 8 13 1016.7 - 0.0
19/12:00pm 23.4 19.9 7.1 35 8.4 ENE 15 24 8 13 1017.1 1017.2 0.0
19/11:30am 23.2 19.7 3.7 28 9.5 ENE 11 19 6 10 1017.8 - 0.0
19/11:00am 23.1 20.4 5.5 32 8.9 SE 9 15 5 8 1018.5 - 0.0
19/10:30am 23.2 21.7 6.9 35 8.4 SE 4 11 2 6 1019.1 - 0.0
19/10:00am 21.6 19.8 7.8 41 7.2 ESE 7 15 4 8 1019.4 - 0.0
19/09:30am 20.1 19.6 9.4 50 5.7 N 2 7 1 4 1019.6 - 0.0
19/09:00am 17.8 17.7 10.9 64 3.7 N 2 7 1 4 1019.6 1019.6 0.0
19/08:30am 15.4 15.5 11.4 77 2.1 NNW 2 7 1 4 1019.6 - 0.0
19/08:00am 13.0 13.4 11.4 90 0.8 CALM 0 0 0 0 1019.4 - 0.0
19/07:30am 10.2 10.2 9.7 97 0.3 CALM 0 4 0 2 1019.2 - 0.0
19/07:00am 7.6 6.2 7.3 98 0.1 WNW 4 9 2 5 1018.8 - 0.0
19/06:30am 6.3 4.2 5.7 96 0.3 W 6 7 3 4 1018.5 - 0.0
19/06:00am 6.5 4.8 6.1 97 0.2 N 4 6 2 3 1018.2 1018.2 0.0
19/05:30am 7.2 6.5 6.8 97 0.2 CALM 0 0 0 0 1017.8 - 0.0
19/05:00am 7.7 6.7 7.3 97 0.2 E 2 6 1 3 1017.5 - 0.0
19/04:30am 7.1 5.0 6.5 96 0.3 N 7 9 4 5 1017.4 - 0.0
19/04:00am 8.0 6.1 7.6 97 0.2 W 7 13 4 7 1017.1 - 0.0
19/03:30am 8.2 6.6 7.9 98 0.1 N 6 9 3 5 1017.2 - 0.0
19/03:00am 8.0 7.0 7.4 96 0.3 N 2 6 1 3 1017.1 1017.1 0.0
19/02:30am 8.1 7.5 7.5 96 0.3 CALM 0 0 0 0 1017.1 - 0.0
19/02:00am 8.0 5.7 7.4 96 0.3 W 9 13 5 7 1017.2 - 0.0
19/01:30am 8.4 7.1 7.5 94 0.4 W 4 9 2 5 1017.4 - 0.0
19/01:00am 8.9 8.5 8.1 95 0.4 CALM 0 0 0 0 1017.4 - 0.0
19/12:30am 9.4 9.1 8.5 94 0.4 CALM 0 6 0 3 1017.6 - 0.0
19/12:00am 10.0 9.4 8.9 93 0.5 W 2 6 1 3 1017.7 1017.7 0.0
 
Date/Time
EST
Temp
°C
App
Temp
°C
Dew
Point
Rel
Hum
%
Delta-T
°C
Wind Press
QNH
hPa
Press
MSL
hPa
Rain
since 9 am
mm
Dir
 
Spd
km/h
Gust
km/h
Spd
kts
Gust
kts
18/11:30pm 10.5 10.5 9.7 95 0.4 CALM 0 0 0 0 1017.7 - 0.0
18/11:00pm 10.3 9.1 9.5 95 0.4 NNW 6 7 3 4 1017.7 - 0.0
18/10:30pm 9.9 8.0 9.1 95 0.4 NW 9 11 5 6 1017.7 - 0.0
18/10:00pm 11.2 11.3 10.1 93 0.6 CALM 0 0 0 0 1017.7 - 0.0
18/09:30pm 11.5 11.5 9.8 89 0.9 CALM 0 0 0 0 1017.6 - 0.0
18/09:00pm 12.7 12.9 10.6 87 1.1 CALM 0 0 0 0 1017.5 1017.5 0.0
18/08:30pm 12.6 12.4 10.5 87 1.1 NW 2 7 1 4 1017.2 - 0.0
18/08:00pm 13.3 13.6 11.0 86 1.2 CALM 0 0 0 0 1016.9 - 0.0
18/07:30pm 14.5 14.9 11.3 81 1.7 CALM 0 2 0 1 1016.6 - 0.0
18/07:00pm 16.0 15.0 11.0 72 2.7 ENE 7 9 4 5 1016.1 - 0.0
18/06:30pm 17.6 16.6 10.9 65 3.6 N 7 9 4 5 1015.5 - 0.0
18/06:00pm 18.5 17.1 10.8 61 4.2 N 9 13 5 7 1015.2 1015.2 0.0
18/05:30pm 20.4 18.1 10.5 53 5.4 N 13 17 7 9 1014.9 - 0.0
18/05:00pm 21.6 17.8 9.2 45 6.6 NNE 19 24 10 13 1014.4 - 0.0
18/04:30pm 23.4 19.1 7.1 35 8.5 NNE 19 22 10 12 1014.0 - 0.0
18/04:00pm 26.2 22.5 2.2 21 11.6 WSW 11 19 6 10 1013.8 - 0.0
18/03:30pm 26.3 21.0 1.6 20 11.8 WSW 19 28 10 15 1013.6 - 0.0
18/03:00pm 26.0 21.2 2.7 22 11.4 SW 17 26 9 14 1013.8 1013.8 0.0
18/02:30pm 26.6 22.4 3.8 23 11.4 W 15 22 8 12 1013.9 - 0.0

Other Formats:

Comma delimited format used in spreadsheet applications
http://www.bom.gov.au/fwo/IDQ60801/IDQ60801.94365.axf

JavaScript Object Notation format (JSON) in row-major order
http://www.bom.gov.au/fwo/IDQ60801/IDQ60801.94365.json